Time;durP1;ratioP1;P1;durP2;ratioP2;P2;SDS_P1;SDS_P2;PMS_P1;PMS_P2;Temp;Humidity;BMP_temperature;BMP_pressure;BME280_temperature;BME280_humidity;BME280_pressure;Samples;Min_cycle;Max_cycle;Signal;HPM_P1;HPM_P2
2022/05/15 00:01:18;;;;;;;13.82;5.97;;;;;;;-141.50;100.00;63355.56;5090793;28;20122;-78
2022/05/15 00:03:48;;;;;;;15.88;7.20;;;;;;;-141.50;100.00;63355.56;5091329;28;20047;-80
2022/05/15 00:06:15;;;;;;;18.88;7.68;;;;;;;-141.50;100.00;63355.56;5091953;28;20048;-79
2022/05/15 00:08:41;;;;;;;27.15;9.20;;;;;;;-141.50;100.00;63355.56;5100882;28;20066;-79
2022/05/15 00:11:10;;;;;;;20.17;9.95;;;;;;;-141.50;100.00;63355.56;5097683;28;20054;-79
2022/05/15 00:13:37;;;;;;;19.98;8.75;;;;;;;-141.50;100.00;63355.56;5125424;28;20120;-79
2022/05/15 00:16:05;;;;;;;24.88;8.30;;;;;;;-141.50;100.00;63355.56;5116934;28;20047;-77
2022/05/15 00:18:32;;;;;;;18.92;7.38;;;;;;;-141.50;100.00;63355.56;5107441;28;20044;-79
2022/05/15 00:20:59;;;;;;;14.20;6.38;;;;;;;-141.50;100.00;63355.56;5082515;28;20075;-80
2022/05/15 00:23:26;;;;;;;16.30;6.15;;;;;;;-141.50;100.00;63355.56;5096685;28;20055;-79
2022/05/15 00:25:53;;;;;;;14.18;6.05;;;;;;;-141.50;100.00;63355.56;5096424;28;20052;-77
2022/05/15 00:28:19;;;;;;;15.48;6.45;;;;;;;-141.50;100.00;63355.56;5096756;28;20486;-78
2022/05/15 00:30:47;;;;;;;13.52;6.75;;;;;;;-141.50;100.00;63355.56;5099149;28;20071;-79
2022/05/15 00:33:14;;;;;;;14.57;6.53;;;;;;;-141.50;100.00;63355.56;5083808;28;20107;-78
2022/05/15 00:35:41;;;;;;;19.75;7.85;;;;;;;-141.50;100.00;63355.56;5086730;28;20043;-78
2022/05/15 00:38:09;;;;;;;22.58;9.00;;;;;;;-141.50;100.00;63355.56;5096439;28;20031;-76
2022/05/15 00:40:38;;;;;;;23.27;8.07;;;;;;;-141.50;100.00;63355.56;5098033;28;20052;-77
2022/05/15 00:43:10;;;;;;;24.88;9.88;;;;;;;-141.50;100.00;63355.56;5109333;28;20078;-80
2022/05/15 00:45:36;;;;;;;26.92;10.32;;;;;;;-141.50;100.00;63355.56;5083072;28;20120;-80
2022/05/15 00:48:03;;;;;;;25.17;11.60;;;;;;;-141.50;100.00;63355.56;5081070;28;20071;-80
2022/05/15 00:50:36;;;;;;;24.02;11.85;;;;;;;-141.50;100.00;63355.56;5079598;28;20072;-80
2022/05/15 00:53:07;;;;;;;28.30;11.00;;;;;;;-141.50;100.00;63355.56;5106026;28;20048;-78
2022/05/15 00:55:42;;;;;;;18.83;7.75;;;;;;;-141.50;100.00;63355.56;5078499;28;20092;-79
2022/05/15 00:58:15;;;;;;;12.43;6.97;;;;;;;-141.50;100.00;63355.56;5096955;28;20097;-78
2022/05/15 01:00:42;;;;;;;22.38;7.82;;;;;;;-141.50;100.00;63355.56;5082432;28;20060;-79
2022/05/15 01:03:13;;;;;;;15.68;6.90;;;;;;;-141.50;100.00;63355.56;5100847;28;20087;-80
2022/05/15 01:05:49;;;;;;;13.30;6.78;;;;;;;-141.50;100.00;63355.56;5101036;28;20056;-79
2022/05/15 01:08:20;;;;;;;16.77;7.30;;;;;;;-141.50;100.00;63355.56;5099301;28;20048;-78
2022/05/15 01:10:52;;;;;;;16.45;6.97;;;;;;;-141.50;100.00;63355.56;5104346;28;20052;-79
2022/05/15 01:13:22;;;;;;;;;;;;;;;-141.50;100.00;63355.56;5081739;28;20048;-79
2022/05/15 01:15:50;;;;;;;16.40;6.78;;;;;;;-141.50;100.00;63355.56;5102828;28;19943;-79
2022/05/15 01:18:24;;;;;;;14.70;6.88;;;;;;;-141.50;100.00;63355.56;5110809;28;20052;-79
2022/05/15 01:20:55;;;;;;;16.90;6.68;;;;;;;-141.50;100.00;63355.56;5099764;28;20075;-78
2022/05/15 01:23:22;;;;;;;16.08;6.28;;;;;;;-141.50;100.00;63355.56;5076924;28;20106;-79
2022/05/15 01:25:49;;;;;;;14.45;6.65;;;;;;;-141.50;100.00;63355.56;5093573;28;20087;-80
2022/05/15 01:28:22;;;;;;;17.92;7.13;;;;;;;-141.50;100.00;63355.56;5094228;28;20425;-79
2022/05/15 01:30:52;;;;;;;12.13;6.40;;;;;;;-141.50;100.00;63355.56;5095188;28;20466;-78
2022/05/15 01:33:22;;;;;;;14.75;6.75;;;;;;;-141.50;100.00;63355.56;5101134;28;20066;-79
2022/05/15 01:35:49;;;;;;;18.77;8.00;;;;;;;-141.50;100.00;63355.56;5092864;28;20082;-78
2022/05/15 01:38:19;;;;;;;21.05;8.18;;;;;;;-141.50;100.00;63355.56;5092508;28;20086;-78
2022/05/15 01:40:48;;;;;;;19.80;8.30;;;;;;;-141.50;100.00;63355.56;5075366;28;20127;-78
2022/05/15 01:43:15;;;;;;;22.92;9.63;;;;;;;-141.50;100.00;63355.56;5093591;28;20043;-79
2022/05/15 01:45:42;;;;;;;25.42;8.38;;;;;;;-141.50;100.00;63355.56;5076095;28;20056;-80
2022/05/15 01:48:12;;;;;;;15.57;7.40;;;;;;;-141.50;100.00;63355.56;5079797;28;20403;-78
2022/05/15 01:50:39;;;;;;;25.90;8.45;;;;;;;-141.50;100.00;63355.56;5077052;28;20110;-80
2022/05/15 01:53:05;;;;;;;22.63;8.38;;;;;;;-141.50;100.00;63355.56;5092931;28;20114;-80
2022/05/15 01:55:32;;;;;;;16.73;7.75;;;;;;;-141.50;100.00;63355.56;5093065;28;20098;-80
2022/05/15 01:57:59;;;;;;;21.10;8.55;;;;;;;-141.50;100.00;63355.56;5092726;28;20143;-79
2022/05/15 02:00:27;;;;;;;21.58;8.40;;;;;;;-141.50;100.00;63355.56;5092100;28;20071;-79
2022/05/15 02:02:53;;;;;;;13.73;7.70;;;;;;;-141.50;100.00;63355.56;5091259;28;20562;-79
2022/05/15 02:05:21;;;;;;;20.58;8.60;;;;;;;-141.50;100.00;63355.56;5091837;28;20103;-79
2022/05/15 02:07:48;;;;;;;20.48;7.72;;;;;;;-141.50;100.00;63355.56;5092361;28;20077;-79
2022/05/15 02:10:15;;;;;;;16.33;8.05;;;;;;;-141.50;100.00;63355.56;5074305;28;20047;-79
2022/05/15 02:12:42;;;;;;;19.80;7.60;;;;;;;-141.50;100.00;63355.56;5075966;28;20062;-80
2022/05/15 02:15:10;;;;;;;17.75;7.60;;;;;;;-141.50;100.00;63355.56;5101911;28;20043;-79
2022/05/15 02:17:37;;;;;;;20.95;7.97;;;;;;;-141.50;100.00;63355.56;5076494;28;20056;-79
2022/05/15 02:20:05;;;;;;;20.30;8.20;;;;;;;-141.50;100.00;63355.56;5075075;28;20052;-78
2022/05/15 02:22:31;;;;;;;20.58;7.93;;;;;;;-141.50;100.00;63355.56;5074435;28;20048;-78
2022/05/15 02:24:58;;;;;;;20.83;8.48;;;;;;;-141.50;100.00;63355.56;5073928;28;20108;-80
2022/05/15 02:27:24;;;;;;;19.30;7.78;;;;;;;-141.50;100.00;63355.56;5054629;28;20088;-81
2022/05/15 02:29:51;;;;;;;18.13;7.78;;;;;;;-141.50;100.00;63355.56;5074817;28;20135;-81
2022/05/15 02:32:17;;;;;;;21.80;7.82;;;;;;;-141.50;100.00;63355.56;5075728;28;20186;-80
2022/05/15 02:34:44;;;;;;;16.02;7.65;;;;;;;-141.50;100.00;63355.56;5053416;28;20079;-81
2022/05/15 02:37:10;;;;;;;19.38;8.13;;;;;;;-141.50;100.00;63355.56;5072042;28;20072;-79
2022/05/15 02:39:37;;;;;;;17.08;7.45;;;;;;;-141.50;100.00;63355.56;5054832;28;20075;-80
2022/05/15 02:42:04;;;;;;;17.15;7.82;;;;;;;-141.50;100.00;63355.56;5072268;28;20052;-80
2022/05/15 02:44:30;;;;;;;15.23;7.63;;;;;;;-141.50;100.00;63355.56;5073009;28;20087;-80
2022/05/15 02:46:57;;;;;;;14.77;7.80;;;;;;;-141.50;100.00;63355.56;5071622;28;20056;-79
2022/05/15 02:52:09;;;;;;;18.43;7.33;;;;;;;-141.50;100.00;63355.56;5071506;28;20374;-80
2022/05/15 02:54:35;;;;;;;14.85;7.45;;;;;;;-141.50;100.00;63355.56;5078172;28;20048;-80
2022/05/15 02:57:06;;;;;;;17.52;7.68;;;;;;;-141.50;100.00;63355.56;5071259;28;20112;-80
2022/05/15 02:59:34;;;;;;;19.45;8.18;;;;;;;-141.50;100.00;63355.56;5070913;28;20060;-79
2022/05/15 03:02:03;;;;;;;16.35;7.90;;;;;;;-141.50;100.00;63355.56;5071114;28;20103;-80
2022/05/15 03:04:32;;;;;;;18.38;7.75;;;;;;;-141.50;100.00;63355.56;5067330;28;20032;-78
2022/05/15 03:07:01;;;;;;;14.85;7.63;;;;;;;-141.50;100.00;63355.56;5072698;28;20091;-78
2022/05/15 03:09:27;;;;;;;16.67;8.25;;;;;;;-141.50;100.00;63355.56;5074265;28;20057;-79
2022/05/15 03:11:54;;;;;;;18.15;7.63;;;;;;;-141.50;100.00;63355.56;5073102;28;20063;-80
2022/05/15 03:14:20;;;;;;;15.68;7.78;;;;;;;-141.50;100.00;63355.56;5071316;28;20095;-80
2022/05/15 03:16:47;;;;;;;15.52;7.80;;;;;;;-141.50;100.00;63355.56;5081884;28;20044;-79
2022/05/15 03:19:13;;;;;;;13.70;7.10;;;;;;;-141.50;100.00;63355.56;5092862;28;20599;-80
2022/05/15 03:21:40;;;;;;;15.40;7.85;;;;;;;-141.50;100.00;63355.56;5091085;28;20082;-80
2022/05/15 03:24:11;;;;;;;20.60;8.10;;;;;;;-141.50;100.00;63355.56;5092121;28;20048;-80
2022/05/15 03:26:43;;;;;;;19.85;8.98;;;;;;;-141.50;100.00;63355.56;5091193;28;20052;-80
2022/05/15 03:29:11;;;;;;;16.27;9.20;;;;;;;-141.50;100.00;63355.56;5092941;28;20138;-80
2022/05/15 03:31:39;;;;;;;21.70;9.10;;;;;;;-141.50;100.00;63355.56;5075433;28;20593;-78
2022/05/15 03:34:09;;;;;;;18.42;8.82;;;;;;;-141.50;100.00;63355.56;5094078;28;20614;-77
2022/05/15 03:36:36;;;;;;;19.65;8.30;;;;;;;-141.50;100.00;63355.56;5097996;28;20549;-77
2022/05/15 03:39:08;;;;;;;14.00;7.47;;;;;;;-141.50;100.00;63355.56;5073435;28;20086;-76
2022/05/15 03:41:36;;;;;;;14.30;8.07;;;;;;;-141.50;100.00;63355.56;5095143;28;20079;-79
2022/05/15 03:44:03;;;;;;;16.80;7.72;;;;;;;-141.50;100.00;63355.56;5092863;28;20211;-79
2022/05/15 03:46:32;;;;;;;16.30;7.38;;;;;;;-141.50;100.00;63355.56;5071540;28;20052;-80
2022/05/15 03:48:59;;;;;;;18.70;7.85;;;;;;;-141.50;100.00;63355.56;5091120;28;20044;-80
2022/05/15 03:51:26;;;;;;;17.80;7.47;;;;;;;-141.50;100.00;63355.56;5090862;28;20071;-79
2022/05/15 03:53:53;;;;;;;18.13;7.43;;;;;;;-141.50;100.00;63355.56;5073611;28;20082;-80
2022/05/15 03:56:49;;;;;;;15.80;6.95;;;;;;;-141.50;100.00;63355.56;5072874;28;20048;-79
2022/05/15 03:59:09;;;;;;;16.20;8.27;;;;;;;-141.50;100.00;63355.56;5091638;28;20060;-79
2022/05/15 04:01:36;;;;;;;19.80;7.80;;;;;;;-141.50;100.00;63355.56;5092859;28;20052;-81
2022/05/15 04:04:02;;;;;;;17.33;7.95;;;;;;;-141.50;100.00;63355.56;5073123;28;20051;-79
2022/05/15 04:06:29;;;;;;;21.77;7.85;;;;;;;-141.50;100.00;63355.56;5090932;28;20055;-78
2022/05/15 04:08:56;;;;;;;12.88;7.22;;;;;;;-141.50;100.00;63355.56;5072634;28;20173;-79
2022/05/15 04:11:23;;;;;;;19.88;8.63;;;;;;;-141.50;100.00;63355.56;5089202;28;20099;-78
2022/05/15 04:13:49;;;;;;;16.20;7.70;;;;;;;-141.50;100.00;63355.56;5073207;28;20044;-78
2022/05/15 04:16:16;;;;;;;17.58;7.72;;;;;;;-141.50;100.00;63355.56;5099700;28;20036;-78
2022/05/15 04:18:43;;;;;;;18.67;8.13;;;;;;;-141.50;100.00;63355.56;5091909;28;20078;-80
2022/05/15 04:21:10;;;;;;;16.13;7.50;;;;;;;-141.50;100.00;63355.56;5072557;28;20044;-79
2022/05/15 04:23:37;;;;;;;18.30;7.03;;;;;;;-141.50;100.00;63355.56;5089109;28;20516;-77
2022/05/15 04:26:04;;;;;;;16.80;7.47;;;;;;;-141.50;100.00;63355.56;5071546;28;20079;-79
2022/05/15 04:28:31;;;;;;;18.98;7.03;;;;;;;-141.50;100.00;63355.56;5090094;28;20139;-79
2022/05/15 04:31:03;;;;;;;18.58;7.80;;;;;;;-141.50;100.00;63355.56;5090538;28;20553;-78
2022/05/15 04:33:30;;;;;;;12.68;6.80;;;;;;;-141.50;100.00;63355.56;5072567;28;20067;-78
2022/05/15 04:35:57;;;;;;;17.02;7.30;;;;;;;-141.50;100.00;63355.56;5074623;28;20039;-77
2022/05/15 04:38:27;;;;;;;17.92;8.00;;;;;;;-141.50;100.00;63355.56;5098896;28;20101;-78
2022/05/15 04:40:53;;;;;;;15.48;7.68;;;;;;;-141.50;100.00;63355.56;5091950;28;20087;-78
2022/05/15 04:43:20;;;;;;;21.83;7.95;;;;;;;-141.50;100.00;63355.56;5091943;28;20508;-78
2022/05/15 04:45:46;;;;;;;19.05;8.23;;;;;;;-141.50;100.00;63355.56;5075289;28;20466;-78
2022/05/15 04:48:16;;;;;;;21.27;8.75;;;;;;;-141.50;100.00;63355.56;5094162;28;20052;-77
2022/05/15 04:50:43;;;;;;;20.77;9.70;;;;;;;-141.50;100.00;63355.56;5121197;28;20127;-79
2022/05/15 04:53:09;;;;;;;23.95;10.90;;;;;;;-141.50;100.00;63355.56;5127163;28;20066;-78
2022/05/15 04:55:36;;;;;;;22.50;10.18;;;;;;;-141.50;100.00;63355.56;5132193;28;20040;-77
2022/05/15 04:58:03;;;;;;;23.52;11.15;;;;;;;-141.50;100.00;63355.56;5130710;28;20770;-80
2022/05/15 05:00:30;;;;;;;23.95;9.95;;;;;;;-141.50;100.00;63355.56;5107793;28;20075;-77
2022/05/15 05:02:57;;;;;;;23.25;11.10;;;;;;;-141.50;100.00;63355.56;5107326;28;20058;-81
2022/05/15 05:05:23;;;;;;;27.42;10.68;;;;;;;-141.50;100.00;63355.56;5119030;28;20051;-77
2022/05/15 05:07:50;;;;;;;24.83;10.05;;;;;;;-141.50;100.00;63355.56;5085076;28;20091;-77
2022/05/15 05:10:16;;;;;;;23.77;9.35;;;;;;;-141.50;100.00;63355.56;5083843;28;20067;-78
2022/05/15 05:12:45;;;;;;;21.40;9.43;;;;;;;-141.50;100.00;63355.56;5084046;28;20368;-79
2022/05/15 05:15:12;;;;;;;25.17;9.10;;;;;;;-141.50;100.00;63355.56;5076737;28;20048;-79
2022/05/15 05:17:42;;;;;;;23.95;8.73;;;;;;;-141.50;100.00;63355.56;5061448;28;20058;-80
2022/05/15 05:20:11;;;;;;;20.00;8.95;;;;;;;-141.50;100.00;63355.56;5074153;28;20109;-79
2022/05/15 05:22:39;;;;;;;23.08;8.70;;;;;;;-141.50;100.00;63355.56;5058680;28;20140;-78
2022/05/15 05:25:06;;;;;;;24.00;8.25;;;;;;;-141.50;100.00;63355.56;5076357;28;20049;-80
2022/05/15 05:27:34;;;;;;;21.35;8.68;;;;;;;-141.50;100.00;63355.56;5074418;28;20110;-79
2022/05/15 05:30:00;;;;;;;23.17;8.23;;;;;;;-141.50;100.00;63355.56;5073638;28;20079;-79
2022/05/15 05:32:27;;;;;;;22.45;7.68;;;;;;;-141.50;100.00;63355.56;5073471;28;20083;-78
2022/05/15 05:34:53;;;;;;;24.00;8.00;;;;;;;-141.50;100.00;63355.56;5073695;28;20204;-80
2022/05/15 05:37:22;;;;;;;23.48;7.38;;;;;;;-141.50;100.00;63355.56;5079706;28;20045;-78
2022/05/15 05:39:52;;;;;;;17.13;7.03;;;;;;;-141.50;100.00;63355.56;5054481;28;20049;-78
2022/05/15 05:42:18;;;;;;;18.42;7.10;;;;;;;-141.50;100.00;63355.56;5055089;28;20052;-79
2022/05/15 05:44:45;;;;;;;19.08;6.65;;;;;;;-141.50;100.00;63355.56;5063273;28;20040;-79
2022/05/15 05:47:11;;;;;;;18.10;6.60;;;;;;;-141.50;100.00;63355.56;5072199;28;20108;-79
2022/05/15 05:49:38;;;;;;;21.08;6.82;;;;;;;-141.50;100.00;63355.56;5057017;28;20110;-77
2022/05/15 05:52:05;;;;;;;21.83;7.20;;;;;;;-141.50;100.00;63355.56;5061921;28;20143;-80
2022/05/15 05:54:32;;;;;;;22.15;6.30;;;;;;;-141.50;100.00;63355.56;5080748;28;20571;-79
2022/05/15 05:56:58;;;;;;;24.52;6.30;;;;;;;-141.50;100.00;63355.56;5086856;28;20082;-79
2022/05/15 05:59:25;;;;;;;20.27;6.60;;;;;;;-141.50;100.00;63355.56;5069829;28;20579;-79
2022/05/15 06:01:52;;;;;;;23.25;6.68;;;;;;;-141.50;100.00;63355.56;5083746;28;20090;-78
2022/05/15 06:07:04;;;;;;;16.60;5.83;;;;;;;-141.50;100.00;63355.56;5073403;28;20110;-81
2022/05/15 06:09:30;;;;;;;16.23;6.18;;;;;;;-141.50;100.00;63355.56;5072408;28;20318;-81
2022/05/15 06:11:58;;;;;;;16.75;5.60;;;;;;;-141.50;100.00;63355.56;5054611;28;20048;-82
2022/05/15 06:14:25;;;;;;;16.98;5.90;;;;;;;-141.50;100.00;63355.56;5080398;28;20089;-81
2022/05/15 06:16:51;;;;;;;15.18;5.13;;;;;;;-141.50;100.00;63355.56;5083965;28;20540;-81
2022/05/15 06:19:19;;;;;;;15.95;5.53;;;;;;;-141.50;100.00;63355.56;5055346;28;20084;-84
2022/05/15 06:21:45;;;;;;;13.52;4.70;;;;;;;-141.50;100.00;63355.56;5055083;28;20092;-82
2022/05/15 06:24:12;;;;;;;14.80;4.82;;;;;;;-141.50;100.00;63355.56;5057069;28;20076;-82
2022/05/15 06:26:38;;;;;;;18.92;4.93;;;;;;;-141.50;100.00;63355.56;5073591;28;20064;-84
2022/05/15 06:29:05;;;;;;;18.40;5.25;;;;;;;-141.50;100.00;63355.56;5073895;28;20052;-81
2022/05/15 06:31:31;;;;;;;17.13;5.55;;;;;;;-141.50;100.00;63355.56;5073127;28;20122;-81
2022/05/15 06:33:58;;;;;;;18.73;4.38;;;;;;;-141.50;100.00;63355.56;5073124;28;20529;-82
2022/05/15 06:36:25;;;;;;;18.50;4.95;;;;;;;-141.50;100.00;63355.56;5055284;28;20045;-82
2022/05/15 06:38:51;;;;;;;17.42;4.70;;;;;;;-141.50;100.00;63355.56;5059023;28;20083;-81
2022/05/15 06:41:18;;;;;;;16.20;3.85;;;;;;;-141.50;100.00;63355.56;5074037;28;20610;-82
2022/05/15 06:43:45;;;;;;;15.60;4.25;;;;;;;-141.50;100.00;63355.56;5056368;28;20080;-79
2022/05/15 06:46:11;;;;;;;23.48;4.68;;;;;;;-141.50;100.00;63355.56;5071562;28;20072;-81
2022/05/15 06:48:39;;;;;;;12.68;3.90;;;;;;;-141.50;100.00;63355.56;5103416;28;20051;-80
2022/05/15 06:51:06;;;;;;;13.55;3.60;;;;;;;-141.50;100.00;63355.56;5085001;28;20044;-82
2022/05/15 06:53:33;;;;;;;16.83;3.92;;;;;;;-141.50;100.00;63355.56;5093851;28;20132;-81
2022/05/15 06:58:46;;;;;;;15.73;3.90;;;;;;;-141.50;100.00;63355.56;5112774;28;20062;-80
2022/05/15 07:01:13;;;;;;;11.80;3.58;;;;;;;-141.50;100.00;63355.56;5093066;28;20055;-80
2022/05/15 07:03:41;;;;;;;19.02;3.95;;;;;;;-141.50;100.00;63355.56;5092400;28;20419;-79
2022/05/15 07:06:10;;;;;;;16.30;3.50;;;;;;;-141.50;100.00;63355.56;5092994;28;20130;-80
2022/05/15 07:08:45;;;;;;;15.18;3.47;;;;;;;-141.50;100.00;63355.56;5094239;28;20051;-83
2022/05/15 07:11:13;;;;;;;17.95;3.75;;;;;;;-141.50;100.00;63355.56;5094482;28;20448;-79
2022/05/15 07:13:39;;;;;;;15.52;3.67;;;;;;;-141.50;100.00;63355.56;5093654;28;20070;-79
2022/05/15 07:16:06;;;;;;;18.75;3.80;;;;;;;-141.50;100.00;63355.56;5061951;28;20123;-80
2022/05/15 07:18:33;;;;;;;17.63;3.55;;;;;;;-141.50;100.00;63355.56;5087823;28;20082;-81
2022/05/15 07:20:59;;;;;;;14.63;3.35;;;;;;;-141.50;100.00;63355.56;5083070;28;20080;-81
2022/05/15 07:23:26;;;;;;;13.15;3.30;;;;;;;-141.50;100.00;63355.56;5070630;28;20071;-79
2022/05/15 07:25:58;;;;;;;20.83;3.78;;;;;;;-141.50;100.00;63355.56;5074599;28;20051;-81
2022/05/15 07:28:24;;;;;;;18.15;3.78;;;;;;;-141.50;100.00;63355.56;5072819;28;20087;-81
2022/05/15 07:30:51;;;;;;;15.23;3.17;;;;;;;-141.50;100.00;63355.56;5089637;28;20101;-80
2022/05/15 07:33:23;;;;;;;20.17;3.78;;;;;;;-141.50;100.00;63355.56;5072304;28;20052;-80
2022/05/15 07:35:50;;;;;;;16.42;3.47;;;;;;;-141.50;100.00;63355.56;5068999;28;20096;-80
2022/05/15 07:38:17;;;;;;;17.45;3.80;;;;;;;-141.50;100.00;63355.56;5050252;28;20048;-80
2022/05/15 07:40:44;;;;;;;18.20;3.60;;;;;;;-141.50;100.00;63355.56;5057069;28;20668;-79
2022/05/15 07:43:12;;;;;;;16.30;3.22;;;;;;;-141.50;100.00;63355.56;5077254;28;20086;-79
2022/05/15 07:45:39;;;;;;;19.23;3.63;;;;;;;-141.50;100.00;63355.56;5059567;28;20098;-79
2022/05/15 07:48:07;;;;;;;14.68;3.05;;;;;;;-141.50;100.00;63355.56;5058844;28;20048;-78
2022/05/15 07:50:35;;;;;;;18.55;3.75;;;;;;;-141.50;100.00;63355.56;5077000;28;20052;-80
2022/05/15 07:53:02;;;;;;;16.85;3.50;;;;;;;-141.50;100.00;63355.56;5059169;28;20079;-80
2022/05/15 07:55:28;;;;;;;22.80;3.72;;;;;;;-141.50;100.00;63355.56;5067657;28;20048;-79
2022/05/15 07:57:55;;;;;;;19.35;3.53;;;;;;;-141.50;100.00;63355.56;5073293;28;20138;-80
2022/05/15 08:00:27;;;;;;;15.93;3.72;;;;;;;-141.50;100.00;63355.56;5074109;28;20056;-80
2022/05/15 08:03:10;;;;;;;25.60;4.18;;;;;;;-141.50;100.00;63355.56;5076437;28;20269;-80
2022/05/15 08:08:24;;;;;;;19.00;3.88;;;;;;;-141.50;100.00;63355.56;5074559;28;20068;-80
2022/05/15 08:10:51;;;;;;;20.63;4.40;;;;;;;-141.50;100.00;63355.56;5073755;28;20102;-80
2022/05/15 08:13:20;;;;;;;16.15;3.70;;;;;;;-141.50;100.00;63355.56;5058534;28;20048;-81
2022/05/15 08:15:47;;;;;;;17.23;3.70;;;;;;;-141.50;100.00;63355.56;5062970;28;20525;-79
2022/05/15 08:23:48;;;;;;;18.33;3.67;;;;;;;-141.50;100.00;63355.56;5077903;28;20683;-81
2022/05/15 08:26:15;;;;;;;21.50;4.15;;;;;;;-141.50;100.00;63355.56;5061426;28;20433;-77
2022/05/15 08:28:42;;;;;;;14.35;3.80;;;;;;;-141.50;100.00;63355.56;5077427;28;20484;-82
2022/05/15 08:31:09;;;;;;;19.75;4.10;;;;;;;-141.50;100.00;63355.56;5060727;28;20052;-80
2022/05/15 08:33:37;;;;;;;16.45;3.72;;;;;;;-141.50;100.00;63355.56;5085129;28;20078;-78
2022/05/15 08:36:06;;;;;;;18.45;3.95;;;;;;;-141.50;100.00;63355.56;5084618;28;20523;-77
2022/05/15 08:38:33;;;;;;;18.90;3.97;;;;;;;-141.50;100.00;63355.56;5084482;28;20067;-78
2022/05/15 08:41:16;;;;;;;20.65;3.88;;;;;;;-141.50;100.00;63355.56;5077688;28;20072;-80
2022/05/15 08:43:47;;;;;;;18.02;4.00;;;;;;;-141.50;100.00;63355.56;5056997;28;20135;-77
2022/05/15 08:46:44;;;;;;;20.88;3.42;;;;;;;-141.50;100.00;63355.56;5081273;28;20072;-80
2022/05/15 08:49:42;;;;;;;16.80;3.90;;;;;;;-141.50;100.00;63355.56;5060224;28;20048;-82
2022/05/15 08:52:15;;;;;;;27.40;4.55;;;;;;;-141.50;100.00;63355.56;5057371;28;20087;-80
2022/05/15 08:55:02;;;;;;;16.88;3.92;;;;;;;-141.50;100.00;63355.56;5059052;28;20072;-81
2022/05/15 08:57:57;;;;;;;22.45;3.92;;;;;;;-141.50;100.00;63355.56;5065618;28;20048;-77
2022/05/15 09:00:30;;;;;;;21.50;4.35;;;;;;;-141.50;100.00;63355.56;5068905;28;20111;-69
2022/05/15 09:03:12;;;;;;;23.15;4.18;;;;;;;-141.50;100.00;63355.56;5085088;28;20071;-79
2022/05/15 09:05:46;;;;;;;21.40;4.07;;;;;;;-141.50;100.00;63355.56;5070607;28;20051;-83
2022/05/15 09:08:37;;;;;;;17.75;3.50;;;;;;;-141.50;100.00;63355.56;5075835;28;20171;-79
2022/05/15 09:11:06;;;;;;;16.35;3.60;;;;;;;-141.50;100.00;63355.56;5078736;28;20175;-77
2022/05/15 09:13:39;;;;;;;16.90;4.03;;;;;;;-141.50;100.00;63355.56;5078800;28;20264;-76
2022/05/15 09:16:15;;;;;;;56.90;23.55;;;;;;;-141.50;100.00;63355.56;5080356;28;20095;-78
2022/05/15 09:18:42;;;;;;;22.55;4.35;;;;;;;-141.50;100.00;63355.56;5064259;28;20858;-77
2022/05/15 09:21:14;;;;;;;20.40;4.50;;;;;;;-141.50;100.00;63355.56;5056688;28;20139;-82
2022/05/15 09:23:45;;;;;;;33.33;10.63;;;;;;;-141.50;100.00;63355.56;5062748;28;20052;-82
2022/05/15 09:26:20;;;;;;;29.58;5.00;;;;;;;-141.50;100.00;63355.56;5060922;28;20416;-83
2022/05/15 09:28:52;;;;;;;34.55;8.93;;;;;;;-141.50;100.00;63355.56;5080678;28;20683;-83
2022/05/15 09:31:29;;;;;;;18.85;4.97;;;;;;;-141.50;100.00;63355.56;5064101;28;20078;-82
2022/05/15 09:34:03;;;;;;;15.60;3.67;;;;;;;-141.50;100.00;63355.56;5063013;28;20062;-81
2022/05/15 09:36:35;;;;;;;19.92;3.75;;;;;;;-141.50;100.00;63355.56;5060718;28;20125;-81
2022/05/15 09:39:27;;;;;;;17.05;4.18;;;;;;;-141.50;100.00;63355.56;5077804;28;20063;-81
2022/05/15 09:44:46;;;;;;;20.80;4.03;;;;;;;-141.50;100.00;63355.56;5080101;28;20056;-77
2022/05/15 09:47:18;;;;;;;22.67;4.28;;;;;;;-141.50;100.00;63355.56;5090194;28;20036;-78
2022/05/15 09:49:45;;;;;;;35.63;11.32;;;;;;;-141.50;100.00;63355.56;5110022;28;20942;-81
2022/05/15 09:52:19;;;;;;;18.65;3.83;;;;;;;-141.50;100.00;63355.56;5087604;28;20078;-78
2022/05/15 09:54:48;;;;;;;17.48;3.72;;;;;;;-141.50;100.00;63355.56;5100519;28;20048;-85
2022/05/15 09:57:26;;;;;;;14.98;3.58;;;;;;;-141.50;100.00;63355.56;5083053;28;20056;-84
2022/05/15 10:00:00;;;;;;;15.85;4.03;;;;;;;-141.50;100.00;63355.56;5082215;28;20121;-83
2022/05/15 10:02:49;;;;;;;18.98;4.13;;;;;;;-141.50;100.00;63355.56;5076049;28;20060;-82
2022/05/15 10:05:18;;;;;;;19.13;4.40;;;;;;;-141.50;100.00;63355.56;5089221;28;20070;-79
2022/05/15 10:08:01;;;;;;;15.80;3.97;;;;;;;-141.50;100.00;63355.56;5074598;28;21054;-82
2022/05/15 10:11:02;;;;;;;21.45;4.20;;;;;;;-141.50;100.00;63355.56;5080436;28;20143;-80
2022/05/15 10:13:38;;;;;;;15.55;3.85;;;;;;;-141.50;100.00;63355.56;5087853;28;20122;-81
2022/05/15 10:16:10;;;;;;;19.40;4.05;;;;;;;-141.50;100.00;63355.56;5086324;28;20091;-83
2022/05/15 10:19:08;;;;;;;16.65;4.03;;;;;;;-141.50;100.00;63355.56;5061026;28;20521;-80
2022/05/15 10:21:40;;;;;;;14.60;3.50;;;;;;;-141.50;100.00;63355.56;5087089;28;20110;-80
2022/05/15 10:24:13;;;;;;;14.98;3.70;;;;;;;-141.50;100.00;63355.56;5100283;28;20404;-78
2022/05/15 10:27:13;;;;;;;15.73;4.47;;;;;;;-141.50;100.00;63355.56;5094872;28;20495;-73
2022/05/15 10:29:56;;;;;;;20.25;4.15;;;;;;;-141.50;100.00;63355.56;5070897;28;20121;-82
2022/05/15 10:32:34;;;;;;;16.60;4.22;;;;;;;-141.50;100.00;63355.56;5091779;28;20056;-81
2022/05/15 10:35:00;;;;;;;16.58;3.80;;;;;;;-141.50;100.00;63355.56;5090758;28;20048;-79
2022/05/15 10:37:42;;;;;;;17.67;4.13;;;;;;;-141.50;100.00;63355.56;5073753;28;20173;-80
2022/05/15 10:40:21;;;;;;;13.80;3.70;;;;;;;-141.50;100.00;63355.56;5069822;28;20084;-78
2022/05/15 10:43:24;;;;;;;18.55;4.13;;;;;;;-141.50;100.00;63355.56;5052463;28;20111;-80
2022/05/15 10:46:26;;;;;;;17.98;4.18;;;;;;;-141.50;100.00;63355.56;5052910;28;20496;-81
2022/05/15 10:49:03;;;;;;;16.60;4.00;;;;;;;-141.50;100.00;63355.56;5055733;28;20063;-81
2022/05/15 10:51:36;;;;;;;14.98;4.40;;;;;;;-141.50;100.00;63355.56;5073976;28;20106;-76
2022/05/15 10:57:32;;;;;;;15.23;4.07;;;;;;;-141.50;100.00;63355.56;5076417;28;20044;-79
2022/05/15 11:00:18;;;;;;;20.17;4.15;;;;;;;-141.50;100.00;63355.56;5054465;28;20539;-83
2022/05/15 11:03:14;;;;;;;16.55;4.28;;;;;;;-141.50;100.00;63355.56;5082431;28;20049;-82
2022/05/15 11:06:11;;;;;;;11.98;3.50;;;;;;;-141.50;100.00;63355.56;5072862;28;20048;-81
2022/05/15 11:09:09;;;;;;;12.10;3.35;;;;;;;-141.50;100.00;63355.56;5065447;28;20098;-83
2022/05/15 11:12:19;;;;;;;11.82;3.65;;;;;;;-141.50;100.00;63355.56;5067338;28;20076;-84
2022/05/15 11:15:07;;;;;;;11.23;3.60;;;;;;;-141.50;100.00;63355.56;5067658;28;20547;-83
2022/05/15 11:17:48;;;;;;;12.38;3.90;;;;;;;-141.50;100.00;63355.56;5067142;28;20079;-81
2022/05/15 11:20:22;;;;;;;11.20;3.63;;;;;;;-141.50;100.00;63355.56;5062312;28;20105;-83
2022/05/15 11:22:57;;;;;;;12.85;3.85;;;;;;;-141.50;100.00;63355.56;5084427;28;20072;-84
2022/05/15 11:25:42;;;;;;;10.50;3.58;;;;;;;-141.50;100.00;63355.56;5087342;28;20077;-83
2022/05/15 11:28:30;;;;;;;11.57;4.13;;;;;;;-141.50;100.00;63355.56;5085518;28;20140;-84
2022/05/15 11:31:09;;;;;;;14.07;3.80;;;;;;;-141.50;100.00;63355.56;5054792;28;20061;-84
2022/05/15 11:34:09;;;;;;;12.02;3.65;;;;;;;-141.50;100.00;63355.56;5055678;28;20534;-84
2022/05/15 11:36:46;;;;;;;13.45;4.07;;;;;;;-141.50;100.00;63355.56;5021683;28;20072;-84
2022/05/15 11:39:12;;;;;;;15.88;3.88;;;;;;;-141.50;100.00;63355.56;5088454;28;20063;-84
2022/05/15 11:42:08;;;;;;;13.38;3.67;;;;;;;-141.50;100.00;63355.56;5070843;28;20128;-83